createdAt,value
2023-03-26T00:00:59.494Z,100566.88
2023-03-26T00:03:33.832Z,100563.78
2023-03-26T00:06:24.858Z,100564.44
2023-03-26T00:08:56.319Z,100564.28
2023-03-26T00:11:25.392Z,100567.50
2023-03-26T00:13:52.282Z,100563.88
2023-03-26T00:16:22.006Z,100561.22
2023-03-26T00:18:58.904Z,100563.06
2023-03-26T00:21:46.295Z,100563.06
2023-03-26T00:24:13.937Z,100564.31
2023-03-26T00:26:49.119Z,100556.97
2023-03-26T00:29:16.087Z,100565.94
2023-03-26T00:31:42.865Z,100568.22
2023-03-26T00:34:20.638Z,100565.13
2023-03-26T00:36:58.591Z,100566.97
2023-03-26T00:39:47.552Z,100571.69
2023-03-26T00:42:17.187Z,100565.13
2023-03-26T00:44:49.411Z,100576.97
2023-03-26T00:47:16.258Z,100569.97
2023-03-26T00:49:42.957Z,100567.16
2023-03-26T00:52:15.277Z,100567.97
2023-03-26T00:55:00.709Z,100563.44
2023-03-26T00:57:35.782Z,100566.72
2023-03-26T01:00:07.716Z,100562.28
2023-03-26T01:02:39.899Z,100564.75
2023-03-26T01:05:34.660Z,100554.38
2023-03-26T01:08:18.637Z,100560.38
2023-03-26T01:10:46.778Z,100557.53
2023-03-26T01:13:23.563Z,100546.50
2023-03-26T01:15:51.363Z,100540.16
2023-03-26T01:18:22.676Z,100548.53
2023-03-26T01:20:51.161Z,100544.25
2023-03-26T01:23:24.880Z,100545.47
2023-03-26T01:26:02.725Z,100538.91
2023-03-26T01:28:35.268Z,100537.47
2023-03-26T01:31:24.225Z,100535.03
2023-03-26T01:34:18.029Z,100539.91
2023-03-26T01:37:09.748Z,100524.22
2023-03-26T01:39:46.140Z,100520.53
2023-03-26T01:42:22.581Z,100512.78
2023-03-26T01:45:20.096Z,100508.50
2023-03-26T01:47:51.198Z,100509.38
2023-03-26T01:50:17.991Z,100514.41
2023-03-26T01:52:47.445Z,100511.97
2023-03-26T01:55:14.967Z,100509.94
2023-03-26T01:58:20.642Z,100513.97
2023-03-26T02:01:05.440Z,100513.34
2023-03-26T02:03:53.896Z,100521.88
2023-03-26T02:06:32.052Z,100512.66
2023-03-26T02:09:11.033Z,100509.53
2023-03-26T02:11:40.718Z,100497.78
2023-03-26T02:14:13.957Z,100516.09
2023-03-26T02:16:40.910Z,100510.56
2023-03-26T02:19:14.951Z,100516.25
2023-03-26T02:21:42.635Z,100515.28
2023-03-26T02:24:14.786Z,100512.19
2023-03-26T02:26:51.208Z,100509.97
2023-03-26T02:32:10.699Z,100511.03
2023-03-26T02:34:38.420Z,100505.75
2023-03-26T02:37:10.887Z,100498.41
2023-03-26T02:39:42.499Z,100490.34
2023-03-26T02:42:11.990Z,100488.47
2023-03-26T02:44:38.725Z,100484.94
2023-03-26T02:47:11.856Z,100492.63
2023-03-26T02:49:40.566Z,100480.53
2023-03-26T02:52:16.705Z,100481.09
2023-03-26T02:54:46.529Z,100488.50
2023-03-26T02:57:23.131Z,100486.06
2023-03-26T02:59:58.884Z,100483.78
2023-03-26T03:02:31.426Z,100486.06
2023-03-26T03:05:08.404Z,100481.78
2023-03-26T03:07:36.559Z,100482.38
2023-03-26T03:10:03.843Z,100482.06
2023-03-26T03:12:31.151Z,100486.69
2023-03-26T03:15:13.374Z,100486.06
2023-03-26T03:17:52.467Z,100488.00
2023-03-26T03:20:21.144Z,100497.09
2023-03-26T03:23:00.137Z,100508.00
2023-03-26T03:25:42.648Z,100506.13
2023-03-26T03:28:21.048Z,100487.31
2023-03-26T03:30:56.701Z,100491.78
2023-03-26T03:33:35.260Z,100493.72
2023-03-26T03:36:03.160Z,100492.56
2023-03-26T03:38:41.961Z,100492.44
2023-03-26T03:41:28.114Z,100497.69
2023-03-26T03:44:04.968Z,100488.66
2023-03-26T03:49:26.575Z,100486.13
2023-03-26T03:51:56.076Z,100486.94
2023-03-26T03:54:27.488Z,100488.53
2023-03-26T03:56:54.548Z,100493.41
2023-03-26T03:59:21.592Z,100487.69
2023-03-26T04:01:49.243Z,100488.84
2023-03-26T04:04:16.201Z,100487.78
2023-03-26T04:06:46.842Z,100489.59
2023-03-26T04:09:15.765Z,100486.00
2023-03-26T04:11:52.260Z,100487.81
2023-03-26T04:14:27.675Z,100484.44
2023-03-26T04:17:09.660Z,100489.00
2023-03-26T04:19:42.668Z,100489.81
2023-03-26T04:22:15.309Z,100484.19
2023-03-26T04:24:42.276Z,100486.63
2023-03-26T04:27:21.538Z,100491.81
2023-03-26T04:29:51.564Z,100485.03
2023-03-26T04:32:32.320Z,100483.53
2023-03-26T04:34:59.124Z,100485.81
2023-03-26T04:37:46.790Z,100490.34
2023-03-26T04:40:24.887Z,100487.44
2023-03-26T04:43:11.708Z,100487.53
2023-03-26T04:45:38.486Z,100479.88
2023-03-26T04:48:18.112Z,100473.78
2023-03-26T04:50:56.312Z,100475.28
2023-03-26T04:53:39.978Z,100477.72
2023-03-26T04:56:44.328Z,100476.28
2023-03-26T05:02:48.644Z,100477.91
2023-03-26T05:05:16.001Z,100467.72
2023-03-26T05:10:26.386Z,100457.81
2023-03-26T05:12:58.597Z,100460.09
2023-03-26T05:15:34.442Z,100450.66
2023-03-26T05:18:03.129Z,100453.81
2023-03-26T05:20:37.899Z,100457.97
2023-03-26T05:23:07.062Z,100438.91
2023-03-26T05:25:40.395Z,100441.34
2023-03-26T05:28:13.362Z,100440.63
2023-03-26T05:30:54.864Z,100438.16
2023-03-26T05:33:30.747Z,100437.53
2023-03-26T05:36:08.988Z,100445.47
2023-03-26T05:38:40.574Z,100436.38
2023-03-26T05:41:09.545Z,100427.75
2023-03-26T05:43:40.559Z,100423.78
2023-03-26T05:46:08.193Z,100431.41
2023-03-26T05:48:43.013Z,100427.88
2023-03-26T05:51:09.725Z,100428.53
2023-03-26T05:53:36.684Z,100433.16
2023-03-26T05:56:13.211Z,100427.13
2023-03-26T05:58:39.896Z,100433.78
2023-03-26T06:01:12.014Z,100442.41
2023-03-26T06:03:41.360Z,100435.09
2023-03-26T06:06:17.708Z,100437.81
2023-03-26T06:08:48.662Z,100437.13
2023-03-26T06:11:35.782Z,100432.50
2023-03-26T06:14:02.591Z,100427.13
2023-03-26T06:16:29.547Z,100426.38
2023-03-26T06:18:58.565Z,100429.47
2023-03-26T06:21:29.374Z,100434.84
2023-03-26T06:23:57.951Z,100428.09
2023-03-26T06:26:24.658Z,100413.81
2023-03-26T06:28:59.228Z,100405.66
2023-03-26T06:31:27.526Z,100413.28
2023-03-26T06:33:54.435Z,100412.78
2023-03-26T06:36:21.148Z,100405.00
2023-03-26T06:38:47.938Z,100395.44
2023-03-26T06:41:27.978Z,100390.59
2023-03-26T06:43:57.385Z,100393.06
2023-03-26T06:46:33.920Z,100391.59
2023-03-26T06:49:00.687Z,100393.06
2023-03-26T06:51:32.351Z,100388.06
2023-03-26T06:53:59.160Z,100394.41
2023-03-26T06:56:34.315Z,100389.31
2023-03-26T06:59:02.473Z,100397.06
2023-03-26T07:01:45.846Z,100406.22
2023-03-26T07:04:20.464Z,100388.81
2023-03-26T07:06:57.843Z,100389.28
2023-03-26T07:09:27.484Z,100397.00
2023-03-26T07:11:54.308Z,100391.78
2023-03-26T07:14:37.382Z,100384.41
2023-03-26T07:17:15.786Z,100390.88
2023-03-26T07:19:48.636Z,100383.19
2023-03-26T07:22:22.522Z,100385.63
2023-03-26T07:24:53.260Z,100391.44
2023-03-26T07:27:44.376Z,100390.84
2023-03-26T07:30:47.303Z,100385.63
2023-03-26T07:34:13.127Z,100384.00
2023-03-26T07:37:23.030Z,100384.44
2023-03-26T07:40:05.484Z,100385.72
2023-03-26T07:43:04.333Z,100384.38
2023-03-26T07:45:36.484Z,100381.84
2023-03-26T07:48:03.563Z,100380.91
2023-03-26T07:50:30.407Z,100377.88
2023-03-26T07:55:30.139Z,100377.09
2023-03-26T07:58:18.360Z,100378.38
2023-03-26T08:01:02.148Z,100365.16
2023-03-26T08:03:37.845Z,100375.50
2023-03-26T08:06:44.940Z,100365.97
2023-03-26T08:09:31.818Z,100371.34
2023-03-26T08:12:23.756Z,100363.91
2023-03-26T08:20:50.136Z,100349.72
2023-03-26T08:23:50.396Z,100347.25
2023-03-26T08:26:45.404Z,100337.50
2023-03-26T08:29:23.602Z,100331.13
2023-03-26T08:31:54.638Z,100330.56
2023-03-26T08:34:21.397Z,100319.59
2023-03-26T08:36:54.126Z,100320.25
2023-03-26T08:39:28.552Z,100318.09
2023-03-26T08:42:13.899Z,100305.88
2023-03-26T08:45:17.959Z,100300.63
2023-03-26T08:48:24.375Z,100307.72
2023-03-26T08:51:03.082Z,100307.78
2023-03-26T08:54:09.695Z,100304.66
2023-03-26T08:56:43.357Z,100304.44
2023-03-26T08:59:52.997Z,100312.66
2023-03-26T09:02:55.211Z,100288.09
2023-03-26T09:05:46.887Z,100303.56
2023-03-26T09:08:54.164Z,100296.84
2023-03-26T09:14:46.330Z,100280.69
2023-03-26T09:17:22.177Z,100278.16
2023-03-26T09:20:16.563Z,100275.19
2023-03-26T09:23:16.162Z,100270.56
2023-03-26T09:26:10.220Z,100268.81
2023-03-26T09:29:21.152Z,100250.53
2023-03-26T09:32:11.185Z,100254.91
2023-03-26T09:35:04.678Z,100260.13
2023-03-26T09:38:00.276Z,100261.53
2023-03-26T09:40:42.940Z,100262.56
2023-03-26T09:43:35.698Z,100251.16
2023-03-26T09:46:29.348Z,100243.91
2023-03-26T09:49:15.989Z,100243.47
2023-03-26T09:52:02.553Z,100242.06
2023-03-26T09:54:49.647Z,100225.41
2023-03-26T10:01:01.617Z,100223.41
2023-03-26T10:04:09.224Z,100210.75
2023-03-26T10:06:41.919Z,100205.56
2023-03-26T10:09:36.386Z,100194.00
2023-03-26T10:12:34.984Z,100205.47
2023-03-26T10:15:36.330Z,100194.06
2023-03-26T10:18:38.892Z,100184.81
2023-03-26T10:21:10.202Z,100188.84
2023-03-26T10:23:37.422Z,100194.69
2023-03-26T10:27:09.074Z,100191.06
2023-03-26T10:30:14.175Z,100193.31
2023-03-26T10:33:25.596Z,100181.59
2023-03-26T10:36:39.824Z,100167.72
2023-03-26T10:39:42.417Z,100171.16
2023-03-26T10:42:47.060Z,100163.53
2023-03-26T10:48:53.361Z,100159.81
2023-03-26T10:51:45.575Z,100147.13
2023-03-26T10:54:54.539Z,100148.19
2023-03-26T10:57:48.186Z,100131.63
2023-03-26T11:00:26.336Z,100136.28
2023-03-26T11:03:34.532Z,100119.47
2023-03-26T11:06:27.473Z,100114.78
2023-03-26T11:09:21.826Z,100118.09
2023-03-26T11:12:28.134Z,100107.59
2023-03-26T11:15:14.742Z,100102.19
2023-03-26T11:17:59.548Z,100099.63
2023-03-26T11:21:19.794Z,100080.28
2023-03-26T11:24:10.246Z,100068.66
2023-03-26T11:27:15.230Z,100088.69
2023-03-26T11:30:38.399Z,100075.97
2023-03-26T11:33:10.898Z,100061.88
2023-03-26T11:35:44.899Z,100065.09
2023-03-26T11:38:39.556Z,100060.09
2023-03-26T11:41:34.275Z,100049.88
2023-03-26T11:44:08.906Z,100054.81
2023-03-26T11:46:45.240Z,100046.75
2023-03-26T11:49:18.917Z,100052.66
2023-03-26T11:51:57.975Z,100051.72
2023-03-26T11:54:42.337Z,100043.13
2023-03-26T11:57:32.800Z,100048.06
2023-03-26T12:00:32.847Z,100034.13
2023-03-26T12:03:02.703Z,100030.28
2023-03-26T12:05:29.478Z,100023.75
2023-03-26T12:07:57.620Z,100030.44
2023-03-26T12:10:34.267Z,100029.09
2023-03-26T12:13:06.421Z,100025.13
2023-03-26T12:15:33.232Z,100023.59
2023-03-26T12:18:26.068Z,100037.28
2023-03-26T12:21:19.467Z,100029.22
2023-03-26T12:23:59.935Z,100028.97
2023-03-26T12:26:52.265Z,100031.53
2023-03-26T12:29:19.189Z,100030.69
2023-03-26T12:32:27.417Z,100038.63
2023-03-26T12:35:08.218Z,100043.19
2023-03-26T12:37:43.450Z,100029.25
2023-03-26T12:40:25.455Z,100029.91
2023-03-26T12:44:56.290Z,100025.00
2023-03-26T12:45:46.305Z,100007.06
2023-03-26T12:48:44.514Z,99984.13
2023-03-26T12:51:53.606Z,99993.00
2023-03-26T12:54:51.661Z,99986.00
2023-03-26T12:57:39.697Z,99990.91
2023-03-26T13:00:43.312Z,99984.00
2023-03-26T13:03:31.193Z,99996.91
2023-03-26T13:06:12.717Z,99983.50
2023-03-26T13:09:15.519Z,99977.34
2023-03-26T13:11:53.828Z,99962.94
2023-03-26T13:14:33.558Z,99960.19
2023-03-26T13:17:21.779Z,99957.84
2023-03-26T13:20:27.079Z,99961.22
2023-03-26T13:23:08.312Z,99948.59
2023-03-26T13:25:40.871Z,99934.84
2023-03-26T13:28:18.669Z,99922.22
2023-03-26T13:33:40.419Z,99908.13
2023-03-26T13:36:51.596Z,99902.38
2023-03-26T13:39:38.437Z,99905.84
2023-03-26T13:42:19.482Z,99895.63
2023-03-26T13:45:11.697Z,99888.34
2023-03-26T13:47:46.470Z,99875.69
2023-03-26T13:53:33.932Z,99877.03
2023-03-26T13:56:04.382Z,99885.78
2023-03-26T13:58:48.109Z,99883.22
2023-03-26T14:01:34.581Z,99870.09
2023-03-26T14:04:35.315Z,99872.03
2023-03-26T14:07:50.165Z,99859.84
2023-03-26T14:10:28.759Z,99863.78
2023-03-26T14:13:13.624Z,99858.16
2023-03-26T14:16:02.361Z,99845.63
2023-03-26T14:18:55.272Z,99839.97
2023-03-26T14:21:38.588Z,99831.31
2023-03-26T14:24:28.786Z,99830.81
2023-03-26T14:30:49.075Z,99820.78
2023-03-26T14:33:42.308Z,99816.25
2023-03-26T14:36:16.425Z,99825.13
2023-03-26T14:39:17.993Z,99823.94
2023-03-26T14:41:52.936Z,99823.84
2023-03-26T14:44:53.448Z,99817.66
2023-03-26T14:47:26.848Z,99804.34
2023-03-26T14:50:21.577Z,99801.91
2023-03-26T14:53:08.985Z,99782.38
2023-03-26T14:55:56.229Z,99771.66
2023-03-26T14:59:06.052Z,99784.81
2023-03-26T15:01:59.981Z,99780.81
2023-03-26T15:05:19.149Z,99759.69
2023-03-26T15:08:35.558Z,99761.94
2023-03-26T15:11:14.554Z,99757.94
2023-03-26T15:13:59.964Z,99752.59
2023-03-26T15:17:05.319Z,99739.16
2023-03-26T15:20:11.543Z,99731.91
2023-03-26T15:23:05.785Z,99742.81
2023-03-26T15:25:47.415Z,99737.75
2023-03-26T15:28:36.104Z,99729.41
2023-03-26T15:31:28.360Z,99734.06
2023-03-26T15:34:13.663Z,99718.78
2023-03-26T15:37:15.668Z,99690.84
2023-03-26T15:40:19.644Z,99674.34
2023-03-26T15:42:58.272Z,99669.91
2023-03-26T15:45:33.995Z,99667.81
2023-03-26T15:48:11.922Z,99642.72
2023-03-26T15:50:56.508Z,99646.38
2023-03-26T15:53:47.600Z,99635.88
2023-03-26T15:56:31.341Z,99624.78
2023-03-26T15:59:37.596Z,99633.38
2023-03-26T16:05:32.444Z,99617.59
2023-03-26T16:08:20.754Z,99613.31
2023-03-26T16:11:03.827Z,99617.56
2023-03-26T16:13:42.446Z,99616.75
2023-03-26T16:16:14.853Z,99614.44
2023-03-26T16:18:46.792Z,99620.69
2023-03-26T16:21:42.730Z,99632.88
2023-03-26T16:24:19.688Z,99614.16
2023-03-26T16:26:52.553Z,99607.59
2023-03-26T16:29:28.306Z,99608.97
2023-03-26T16:32:13.835Z,99600.25
2023-03-26T16:35:25.902Z,99590.59
2023-03-26T16:38:15.535Z,99592.91
2023-03-26T16:41:15.119Z,99585.97
2023-03-26T16:44:30.257Z,99585.16
2023-03-26T16:47:25.978Z,99576.22
2023-03-26T16:50:08.486Z,99596.84
2023-03-26T16:52:53.482Z,99593.41
2023-03-26T16:55:49.861Z,99588.22
2023-03-26T16:58:56.686Z,99592.41
2023-03-26T17:01:45.122Z,99610.72
2023-03-26T17:04:26.365Z,99616.50
2023-03-26T17:07:38.722Z,99608.78
2023-03-26T17:10:29.142Z,99609.44
2023-03-26T17:13:00.680Z,99612.84
2023-03-26T17:15:30.359Z,99623.09
2023-03-26T17:18:21.851Z,99642.88
2023-03-26T17:21:15.549Z,99661.47
2023-03-26T17:24:23.653Z,99670.19
2023-03-26T17:27:24.324Z,99658.47
2023-03-26T17:30:25.217Z,99672.31
2023-03-26T17:33:17.655Z,99688.38
2023-03-26T17:35:55.026Z,99689.94
2023-03-26T17:38:27.345Z,99690.34
2023-03-26T17:40:59.614Z,99704.88
2023-03-26T17:43:50.243Z,99721.28
2023-03-26T17:46:48.522Z,99739.97
2023-03-26T17:49:21.248Z,99747.28
2023-03-26T17:51:57.948Z,99740.09
2023-03-26T17:54:36.037Z,99735.13
2023-03-26T17:57:17.685Z,99732.69
2023-03-26T17:59:49.584Z,99739.59
2023-03-26T18:02:21.230Z,99745.97
2023-03-26T18:04:51.877Z,99788.09
2023-03-26T18:07:55.955Z,99828.28
2023-03-26T18:11:15.633Z,99869.97
2023-03-26T18:14:13.262Z,99881.72
2023-03-26T18:20:02.819Z,99858.94
2023-03-26T18:22:30.682Z,99840.88
2023-03-26T18:25:00.843Z,99822.03
2023-03-26T18:27:43.458Z,99823.53
2023-03-26T18:30:21.547Z,99812.50
2023-03-26T18:32:53.919Z,99805.91
2023-03-26T18:35:24.940Z,99816.69
2023-03-26T18:37:56.346Z,99824.16
2023-03-26T18:40:32.450Z,99806.38
2023-03-26T18:43:00.089Z,99809.50
2023-03-26T18:45:44.367Z,99790.59
2023-03-26T18:48:24.165Z,99759.88
2023-03-26T18:51:06.940Z,99728.78
2023-03-26T18:53:46.689Z,99731.59
2023-03-26T18:56:43.861Z,99721.53
2023-03-26T18:59:35.760Z,99704.69
2023-03-26T19:02:14.303Z,99706.91
2023-03-26T19:04:46.951Z,99686.59
2023-03-26T19:07:25.898Z,99691.50
2023-03-26T19:09:57.089Z,99672.56
2023-03-26T19:12:29.591Z,99681.91
2023-03-26T19:15:28.065Z,99689.03
2023-03-26T19:18:05.710Z,99675.88
2023-03-26T19:20:44.361Z,99651.81
2023-03-26T19:23:26.210Z,99673.81
2023-03-26T19:25:56.331Z,99670.25
2023-03-26T19:28:39.393Z,99639.47
2023-03-26T19:31:15.456Z,99634.41
2023-03-26T19:33:44.161Z,99614.31
2023-03-26T19:36:24.974Z,99627.28
2023-03-26T19:38:54.607Z,99620.81
2023-03-26T19:41:55.637Z,99635.81
2023-03-26T19:44:39.083Z,99629.47
2023-03-26T19:47:13.193Z,99614.19
2023-03-26T19:50:02.602Z,99615.13
2023-03-26T19:52:40.448Z,99613.69
2023-03-26T19:55:29.429Z,99600.94
2023-03-26T19:57:58.957Z,99602.78
2023-03-26T20:00:31.206Z,99596.38
2023-03-26T20:03:00.897Z,99575.19
2023-03-26T20:05:42.134Z,99579.19
2023-03-26T20:08:19.201Z,99587.19
2023-03-26T20:10:48.224Z,99577.34
2023-03-26T20:16:06.547Z,99582.81
2023-03-26T20:18:34.580Z,99585.28
2023-03-26T20:21:01.448Z,99584.41
2023-03-26T20:23:29.562Z,99589.06
2023-03-26T20:26:00.685Z,99594.94
2023-03-26T20:28:28.209Z,99605.50
2023-03-26T20:31:02.431Z,99599.84
2023-03-26T20:33:33.516Z,99604.47
2023-03-26T20:36:03.127Z,99599.75
2023-03-26T20:38:39.168Z,99604.75
2023-03-26T20:41:12.652Z,99618.16
2023-03-26T20:43:39.697Z,99626.75
2023-03-26T20:46:23.997Z,99622.03
2023-03-26T20:49:11.304Z,99622.16
2023-03-26T20:51:47.020Z,99613.69
2023-03-26T20:54:17.025Z,99616.69
2023-03-26T20:56:54.013Z,99612.53
2023-03-26T20:59:27.258Z,99611.69
2023-03-26T21:02:00.318Z,99620.41
2023-03-26T21:04:28.604Z,99624.84
2023-03-26T21:07:18.099Z,99620.06
2023-03-26T21:09:50.049Z,99610.69
2023-03-26T21:12:28.075Z,99597.34
2023-03-26T21:14:56.042Z,99599.31
2023-03-26T21:20:08.656Z,99593.22
2023-03-26T21:22:38.466Z,99583.44
2023-03-26T21:25:21.183Z,99580.31
2023-03-26T21:28:16.924Z,99587.22
2023-03-26T21:30:48.281Z,99587.97
2023-03-26T21:33:14.987Z,99581.28
2023-03-26T21:35:59.653Z,99575.44
2023-03-26T21:38:29.477Z,99572.81
2023-03-26T21:40:59.113Z,99578.41
2023-03-26T21:43:30.460Z,99572.19
2023-03-26T21:46:13.802Z,99574.03
2023-03-26T21:48:47.590Z,99568.38
2023-03-26T21:51:18.224Z,99563.78
2023-03-26T21:53:51.522Z,99571.88
2023-03-26T21:59:57.640Z,99577.09
2023-03-26T22:03:01.209Z,99576.31
2023-03-26T22:06:15.612Z,99594.19
2023-03-26T22:08:46.148Z,99591.25
2023-03-26T22:11:34.973Z,99596.22
2023-03-26T22:14:22.390Z,99594.69
2023-03-26T22:16:55.351Z,99591.75
2023-03-26T22:19:23.854Z,99588.19
2023-03-26T22:21:50.644Z,99589.25
2023-03-26T22:24:20.300Z,99590.03
2023-03-26T22:26:51.038Z,99592.78
2023-03-26T22:29:19.287Z,99598.66
2023-03-26T22:31:50.293Z,99597.84
2023-03-26T22:34:29.324Z,99591.63
2023-03-26T22:36:56.072Z,99590.72
2023-03-26T22:39:25.170Z,99594.22
2023-03-26T22:41:52.187Z,99601.53
2023-03-26T22:44:20.584Z,99602.06
2023-03-26T22:46:53.124Z,99598.25
2023-03-26T22:49:22.577Z,99594.59
2023-03-26T22:51:50.901Z,99589.81
2023-03-26T22:54:26.650Z,99593.25
2023-03-26T22:57:02.259Z,99593.47
2023-03-26T23:02:19.673Z,99578.44
2023-03-26T23:04:46.727Z,99576.59
2023-03-26T23:07:16.492Z,99575.59
2023-03-26T23:09:43.346Z,99583.31
2023-03-26T23:12:15.583Z,99580.53
2023-03-26T23:14:42.679Z,99587.75
2023-03-26T23:17:19.187Z,99583.84
2023-03-26T23:19:46.067Z,99580.81
2023-03-26T23:22:20.144Z,99586.97
2023-03-26T23:24:46.877Z,99591.44
2023-03-26T23:27:13.589Z,99590.41
2023-03-26T23:29:44.780Z,99596.09
2023-03-26T23:32:29.264Z,99587.03
2023-03-26T23:35:05.600Z,99578.06
2023-03-26T23:37:34.591Z,99574.84
2023-03-26T23:40:01.360Z,99578.31
2023-03-26T23:42:36.379Z,99579.75
2023-03-26T23:45:10.488Z,99575.63
2023-03-26T23:47:46.268Z,99567.78
2023-03-26T23:50:15.851Z,99576.50
2023-03-26T23:53:03.714Z,99570.03
2023-03-26T23:55:37.941Z,99580.81
2023-03-26T23:58:04.652Z,99572.47
